Tribune, Canada
Current Conditions -  °F | °C
As of 5:15 PM on Thursday 27 Nov 2014 (Local Time) from KD50 Reporting Station
Light Snow Light Snow  
Wind Chill: -1°   Ceiling: 100
Heat Index: 16°   Visibility: 1.5mi
Dew Point: 16°   Wind: 18mph
Humidity: 100%   Direction: 90°E
Pressure: 29.91"   Gusts: 23mph
Location:  49.25°N, 103.82°W
Report Text: KD50 272315Z AUTO 09016G20KT 1 1/2SM -SN BKN001 OVC009 M09/M09 A2991 RMK AO2
Loading
Personal Weather Stations






























Interactive Weather Map New forecast layout! Learn more

10-Day Weather Forecast

Advertisements
Track Severe Weather on mobile